createdAt,value
2019-04-04T00:00:47.033Z,3.75
2019-04-04T00:03:15.587Z,4.15
2019-04-04T00:05:44.497Z,3.10
2019-04-04T00:08:14.754Z,6.05
2019-04-04T00:10:43.153Z,3.92
2019-04-04T00:13:13.407Z,4.17
2019-04-04T00:15:41.249Z,4.40
2019-04-04T00:18:09.164Z,3.87
2019-04-04T00:20:37.590Z,4.00
2019-04-04T00:23:07.476Z,4.35
2019-04-04T00:25:36.019Z,4.70
2019-04-04T00:28:04.021Z,5.15
2019-04-04T00:30:32.091Z,4.28
2019-04-04T00:33:12.056Z,4.75
2019-04-04T00:35:40.317Z,4.15
2019-04-04T00:38:10.548Z,4.60
2019-04-04T00:40:41.724Z,4.60
2019-04-04T00:43:11.599Z,5.58
2019-04-04T00:45:39.857Z,5.55
2019-04-04T00:48:10.002Z,4.75
2019-04-04T00:50:37.982Z,5.35
2019-04-04T00:53:05.785Z,5.92
2019-04-04T00:55:33.544Z,5.45
2019-04-04T00:58:01.542Z,6.85
2019-04-04T01:00:29.966Z,6.00
2019-04-04T01:02:58.604Z,4.90
2019-04-04T01:05:26.784Z,6.20
2019-04-04T01:07:54.587Z,5.83
2019-04-04T01:10:22.433Z,5.35
2019-04-04T01:12:52.116Z,6.65
2019-04-04T01:15:20.640Z,5.17
2019-04-04T01:17:54.620Z,6.28
2019-04-04T01:20:22.524Z,6.85
2019-04-04T01:22:50.726Z,5.80
2019-04-04T01:25:18.693Z,6.42
2019-04-04T01:27:48.543Z,6.22
2019-04-04T01:30:16.860Z,6.08
2019-04-04T01:32:47.898Z,6.17
2019-04-04T01:35:14.617Z,6.17
2019-04-04T01:37:45.762Z,6.40
2019-04-04T01:40:13.965Z,6.62
2019-04-04T01:42:41.955Z,6.70
2019-04-04T01:45:12.764Z,6.10
2019-04-04T01:47:40.408Z,6.35
2019-04-04T01:50:08.550Z,6.83
2019-04-04T01:52:36.249Z,6.87
2019-04-04T01:55:06.896Z,6.83
2019-04-04T01:57:34.824Z,7.42
2019-04-04T02:00:02.954Z,6.58
2019-04-04T02:02:33.029Z,6.87
2019-04-04T02:05:00.994Z,7.25
2019-04-04T02:07:29.743Z,6.85
2019-04-04T02:09:58.239Z,6.05
2019-04-04T02:12:26.041Z,6.25
2019-04-04T02:14:53.985Z,7.55
2019-04-04T02:17:22.298Z,7.00
2019-04-04T02:19:50.541Z,6.92
2019-04-04T02:22:18.734Z,6.50
2019-04-04T02:24:46.453Z,6.80
2019-04-04T02:27:14.557Z,6.90
2019-04-04T02:29:42.525Z,7.37
2019-04-04T02:32:13.768Z,8.30
2019-04-04T02:34:41.873Z,7.15
2019-04-04T02:37:09.691Z,7.40
2019-04-04T02:39:37.680Z,6.58
2019-04-04T02:42:05.779Z,6.92
2019-04-04T02:44:33.935Z,7.30
2019-04-04T02:47:02.023Z,7.47
2019-04-04T02:49:29.984Z,8.95
2019-04-04T02:51:58.076Z,7.03
2019-04-04T02:54:26.115Z,6.75
2019-04-04T02:56:53.855Z,7.00
2019-04-04T02:59:22.111Z,7.42
2019-04-04T03:01:50.455Z,8.48
2019-04-04T03:04:18.161Z,8.38
2019-04-04T03:06:46.664Z,7.65
2019-04-04T03:09:14.546Z,6.97
2019-04-04T03:11:43.449Z,7.25
2019-04-04T03:14:11.570Z,7.90
2019-04-04T03:16:39.787Z,7.53
2019-04-04T03:19:10.922Z,8.20
2019-04-04T03:21:37.421Z,7.00
2019-04-04T03:24:06.486Z,7.72
2019-04-04T03:26:38.569Z,7.72
2019-04-04T03:29:10.180Z,7.60
2019-04-04T03:31:38.472Z,8.85
2019-04-04T03:34:11.387Z,8.75
2019-04-04T03:36:36.050Z,8.03
2019-04-04T03:39:06.123Z,8.83
2019-04-04T03:41:35.895Z,8.20
2019-04-04T03:44:03.892Z,9.38
2019-04-04T03:46:37.426Z,7.80
2019-04-04T03:49:01.566Z,8.50
2019-04-04T03:51:30.621Z,8.00
2019-04-04T03:54:00.681Z,8.05
2019-04-04T03:56:33.269Z,9.55
2019-04-04T03:59:00.144Z,9.60
2019-04-04T04:01:28.371Z,8.00
2019-04-04T04:03:59.309Z,8.23
2019-04-04T04:06:27.300Z,9.18
2019-04-04T04:08:55.411Z,9.63
2019-04-04T04:11:23.396Z,8.43
2019-04-04T04:13:51.332Z,9.73
2019-04-04T04:16:19.299Z,9.15
2019-04-04T04:18:47.062Z,10.40
2019-04-04T04:21:14.850Z,9.28
2019-04-04T04:23:42.812Z,10.58
2019-04-04T04:26:10.785Z,9.30
2019-04-04T04:28:38.943Z,10.28
2019-04-04T04:31:06.793Z,10.80
2019-04-04T04:33:34.641Z,8.98
2019-04-04T04:36:09.319Z,8.85
2019-04-04T04:38:35.234Z,9.25
2019-04-04T04:41:03.776Z,8.60
2019-04-04T04:43:33.599Z,8.75
2019-04-04T04:46:01.719Z,8.45
2019-04-04T04:48:31.844Z,8.85
2019-04-04T04:50:59.575Z,11.38
2019-04-04T04:53:27.421Z,10.30
2019-04-04T04:55:59.575Z,9.68
2019-04-04T04:58:26.365Z,10.23
2019-04-04T05:00:54.310Z,9.63
2019-04-04T05:03:24.246Z,9.80
2019-04-04T05:05:53.722Z,10.63
2019-04-04T05:08:24.216Z,8.68
2019-04-04T05:10:53.569Z,9.90
2019-04-04T05:13:28.854Z,9.73
2019-04-04T05:15:57.516Z,10.38
2019-04-04T05:18:25.338Z,11.12
2019-04-04T05:20:57.156Z,9.93
2019-04-04T05:23:23.949Z,11.30
2019-04-04T05:25:54.173Z,11.83
2019-04-04T05:28:22.953Z,11.78
2019-04-04T05:30:52.041Z,9.98
2019-04-04T05:33:22.618Z,11.88
2019-04-04T05:35:49.453Z,10.63
2019-04-04T05:38:17.304Z,10.15
2019-04-04T05:40:45.140Z,9.70
2019-04-04T05:43:14.941Z,12.47
2019-04-04T05:45:44.962Z,12.85
2019-04-04T05:48:12.992Z,11.68
2019-04-04T05:50:43.306Z,11.35
2019-04-04T05:53:12.662Z,12.75
2019-04-04T05:55:41.884Z,11.03
2019-04-04T05:58:10.052Z,10.18
2019-04-04T06:00:40.140Z,11.10
2019-04-04T06:03:15.186Z,12.45
2019-04-04T06:05:43.151Z,12.40
2019-04-04T06:08:12.466Z,10.58
2019-04-04T06:10:40.450Z,11.95
2019-04-04T06:13:08.608Z,11.22
2019-04-04T06:15:36.545Z,10.53
2019-04-04T06:18:04.618Z,10.85
2019-04-04T06:20:32.704Z,11.35
2019-04-04T06:23:01.423Z,11.75
2019-04-04T06:25:34.416Z,11.30
2019-04-04T06:28:01.214Z,10.08
2019-04-04T06:30:42.195Z,11.43
2019-04-04T06:33:04.728Z,10.72
2019-04-04T06:35:33.049Z,11.30
2019-04-04T06:38:00.808Z,11.43
2019-04-04T06:40:30.310Z,12.05
2019-04-04T06:43:03.815Z,10.50
2019-04-04T06:45:33.122Z,10.88
2019-04-04T06:48:06.604Z,10.32
2019-04-04T06:50:34.695Z,10.65
2019-04-04T06:53:02.451Z,10.45
2019-04-04T06:55:39.950Z,11.05
2019-04-04T06:58:09.443Z,9.80
2019-04-04T07:00:37.944Z,9.93
2019-04-04T07:03:07.817Z,9.60
2019-04-04T07:05:38.851Z,9.95
2019-04-04T07:08:10.182Z,9.63
2019-04-04T07:10:37.997Z,9.25
2019-04-04T07:13:21.162Z,10.38
2019-04-04T07:15:46.203Z,9.75
2019-04-04T07:18:06.082Z,9.63
2019-04-04T07:20:33.876Z,9.48
2019-04-04T07:23:05.477Z,9.65
2019-04-04T07:25:35.931Z,9.33
2019-04-04T07:28:03.782Z,8.43
2019-04-04T07:30:31.460Z,10.05
2019-04-04T07:33:00.272Z,9.98
2019-04-04T07:35:32.875Z,8.53
2019-04-04T07:38:03.241Z,9.05
2019-04-04T07:40:31.187Z,9.03
2019-04-04T07:43:00.289Z,9.85
2019-04-04T07:45:28.447Z,11.40
2019-04-04T07:48:00.152Z,10.55
2019-04-04T07:50:28.001Z,9.88
2019-04-04T07:52:55.865Z,9.90
2019-04-04T07:55:23.667Z,8.93
2019-04-04T07:57:51.722Z,10.48
2019-04-04T08:00:19.896Z,11.70
2019-04-04T08:02:47.755Z,12.45
2019-04-04T08:05:15.456Z,11.22
2019-04-04T08:07:43.212Z,12.55
2019-04-04T08:10:20.371Z,11.68
2019-04-04T08:12:41.283Z,12.07
2019-04-04T08:15:09.443Z,11.35
2019-04-04T08:17:37.692Z,11.75
2019-04-04T08:20:05.885Z,12.00
2019-04-04T08:22:35.291Z,11.03
2019-04-04T08:25:03.361Z,11.22
2019-04-04T08:27:32.119Z,11.85
2019-04-04T08:30:00.005Z,12.43
2019-04-04T08:32:27.793Z,11.80
2019-04-04T08:34:55.790Z,13.00
2019-04-04T08:37:23.485Z,11.10
2019-04-04T08:39:51.486Z,10.65
2019-04-04T08:42:19.299Z,10.75
2019-04-04T08:44:47.258Z,11.85
2019-04-04T08:47:15.395Z,13.03
2019-04-04T08:49:43.328Z,12.80
2019-04-04T08:52:16.418Z,12.18
2019-04-04T08:54:40.723Z,10.98
2019-04-04T08:57:08.574Z,10.32
2019-04-04T08:59:36.802Z,11.88
2019-04-04T09:02:04.741Z,11.93
2019-04-04T09:04:32.502Z,11.48
2019-04-04T09:07:00.463Z,11.33
2019-04-04T09:09:28.640Z,11.73
2019-04-04T09:11:56.714Z,11.60
2019-04-04T09:14:24.784Z,12.50
2019-04-04T09:16:52.745Z,13.87
2019-04-04T09:19:20.927Z,12.70
2019-04-04T09:21:49.691Z,12.23
2019-04-04T09:24:17.941Z,14.00
2019-04-04T09:26:45.927Z,12.70
2019-04-04T09:29:13.624Z,12.45
2019-04-04T09:31:41.570Z,13.38
2019-04-04T09:34:10.727Z,12.20
2019-04-04T09:36:38.541Z,13.03
2019-04-04T09:39:10.599Z,12.73
2019-04-04T09:41:38.301Z,13.50
2019-04-04T09:44:06.477Z,12.67
2019-04-04T09:46:34.487Z,12.47
2019-04-04T09:49:02.498Z,14.87
2019-04-04T09:51:30.571Z,13.20
2019-04-04T09:53:58.836Z,12.90
2019-04-04T09:56:26.745Z,14.10
2019-04-04T09:58:55.070Z,13.83
2019-04-04T10:01:23.800Z,13.20
2019-04-04T10:03:51.637Z,13.23
2019-04-04T10:06:19.629Z,12.60
2019-04-04T10:08:47.770Z,13.30
2019-04-04T10:11:16.801Z,12.80
2019-04-04T10:13:44.716Z,14.10
2019-04-04T10:16:15.518Z,13.30
2019-04-04T10:18:44.539Z,13.20
2019-04-04T10:21:12.941Z,13.30
2019-04-04T10:23:40.720Z,11.50
2019-04-04T10:26:08.558Z,11.70
2019-04-04T10:28:36.485Z,11.87
2019-04-04T10:31:04.289Z,11.03
2019-04-04T10:33:32.235Z,12.97
2019-04-04T10:36:00.080Z,11.87
2019-04-04T10:38:27.846Z,11.77
2019-04-04T10:40:55.749Z,13.10
2019-04-04T10:43:23.946Z,11.73
2019-04-04T10:45:51.739Z,12.40
2019-04-04T10:48:19.439Z,12.43
2019-04-04T10:50:47.241Z,13.50
2019-04-04T10:53:15.080Z,11.83
2019-04-04T10:55:42.934Z,13.80
2019-04-04T10:58:10.628Z,12.37
2019-04-04T11:00:38.700Z,11.90
2019-04-04T11:03:12.680Z,12.80
2019-04-04T11:05:40.555Z,13.17
2019-04-04T11:08:14.124Z,12.03
2019-04-04T11:10:42.035Z,13.63
2019-04-04T11:13:09.725Z,12.73
2019-04-04T11:15:37.726Z,14.17
2019-04-04T11:18:05.657Z,14.00
2019-04-04T11:20:33.446Z,14.67
2019-04-04T11:23:02.427Z,14.03
2019-04-04T11:25:30.391Z,14.20
2019-04-04T11:27:58.326Z,13.40
2019-04-04T11:30:27.351Z,14.10
2019-04-04T11:32:58.890Z,14.73
2019-04-04T11:35:26.584Z,14.43
2019-04-04T11:37:54.665Z,14.63
2019-04-04T11:40:22.647Z,14.73
2019-04-04T11:42:50.488Z,13.45
2019-04-04T11:45:21.616Z,13.50
2019-04-04T11:47:51.532Z,15.53
2019-04-04T11:50:19.250Z,13.05
2019-04-04T11:52:51.811Z,11.48
2019-04-04T11:55:19.673Z,12.18
2019-04-04T11:57:48.695Z,11.93
2019-04-04T12:00:25.445Z,11.70
2019-04-04T12:02:53.761Z,12.40
2019-04-04T12:05:23.108Z,11.75
2019-04-04T12:07:51.218Z,12.00
2019-04-04T12:10:20.315Z,11.43
2019-04-04T12:12:50.638Z,12.37
2019-04-04T12:15:18.623Z,12.00
2019-04-04T12:17:47.079Z,12.65
2019-04-04T12:20:15.290Z,11.97
2019-04-04T12:22:43.024Z,10.55
2019-04-04T12:25:11.366Z,11.70
2019-04-04T12:27:41.936Z,11.55
2019-04-04T12:30:10.111Z,11.50
2019-04-04T12:32:40.141Z,11.13
2019-04-04T12:35:08.198Z,12.30
2019-04-04T12:37:36.289Z,12.30
2019-04-04T12:40:05.691Z,11.03
2019-04-04T12:42:33.691Z,11.75
2019-04-04T12:45:01.655Z,11.60
2019-04-04T12:47:30.109Z,11.38
2019-04-04T12:49:58.041Z,10.80
2019-04-04T12:52:25.933Z,11.93
2019-04-04T12:54:53.736Z,12.50
2019-04-04T12:57:21.649Z,11.33
2019-04-04T12:59:49.534Z,12.37
2019-04-04T13:02:17.331Z,11.90
2019-04-04T13:04:45.723Z,11.45
2019-04-04T13:07:13.870Z,21.85
2019-04-04T13:09:41.868Z,14.13
2019-04-04T13:12:09.604Z,12.18
2019-04-04T13:14:37.295Z,13.62
2019-04-04T13:17:04.987Z,11.43
2019-04-04T13:19:32.883Z,11.15
2019-04-04T13:22:00.740Z,13.58
2019-04-04T13:24:28.587Z,12.73
2019-04-04T13:26:56.308Z,12.82
2019-04-04T13:29:24.275Z,12.28
2019-04-04T13:31:52.632Z,13.68
2019-04-04T13:34:20.471Z,14.07
2019-04-04T13:36:48.185Z,14.60
2019-04-04T13:39:16.154Z,13.13
2019-04-04T13:41:44.101Z,14.25
2019-04-04T13:44:11.905Z,13.30
2019-04-04T13:46:39.807Z,12.60
2019-04-04T13:49:07.485Z,11.48
2019-04-04T13:51:35.889Z,11.85
2019-04-04T13:54:05.484Z,12.25
2019-04-04T13:56:33.543Z,14.47
2019-04-04T13:59:04.373Z,14.87
2019-04-04T14:01:31.301Z,15.53
2019-04-04T14:03:59.676Z,13.72
2019-04-04T14:06:27.697Z,15.50
2019-04-04T14:08:55.540Z,14.33
2019-04-04T14:11:23.484Z,13.00
2019-04-04T14:13:51.376Z,12.75
2019-04-04T14:16:19.457Z,12.37
2019-04-04T14:18:47.838Z,12.47
2019-04-04T14:21:15.689Z,13.10
2019-04-04T14:23:45.297Z,11.80
2019-04-04T14:26:13.717Z,11.05
2019-04-04T14:28:41.723Z,11.97
2019-04-04T14:31:09.553Z,12.30
2019-04-04T14:33:37.284Z,11.68
2019-04-04T14:36:05.490Z,10.15
2019-04-04T14:38:33.644Z,10.85
2019-04-04T14:41:11.149Z,12.58
2019-04-04T14:43:32.618Z,12.20
2019-04-04T14:46:00.674Z,10.90
2019-04-04T14:48:28.783Z,10.58
2019-04-04T14:50:57.004Z,12.37
2019-04-04T14:53:26.790Z,10.70
2019-04-04T14:55:54.798Z,10.90
2019-04-04T14:58:30.558Z,11.93
2019-04-04T15:00:57.538Z,12.37
2019-04-04T15:03:25.701Z,12.93
2019-04-04T15:05:53.690Z,12.07
2019-04-04T15:08:21.441Z,12.60
2019-04-04T15:10:49.281Z,12.55
2019-04-04T15:13:19.738Z,12.10
2019-04-04T15:16:12.115Z,11.90
2019-04-04T15:18:40.249Z,11.68
2019-04-04T15:21:09.129Z,11.38
2019-04-04T15:23:37.815Z,11.68
2019-04-04T15:26:05.817Z,14.90
2019-04-04T15:28:34.033Z,21.82
2019-04-04T15:31:01.840Z,28.95
2019-04-04T15:33:29.632Z,36.20
2019-04-04T15:35:57.581Z,31.65
2019-04-04T15:38:25.348Z,30.62
2019-04-04T15:40:53.424Z,31.05
2019-04-04T15:43:21.571Z,25.23
2019-04-04T15:45:49.858Z,24.10
2019-04-04T15:48:17.677Z,20.57
2019-04-04T15:50:45.550Z,21.05
2019-04-04T15:53:13.447Z,21.80
2019-04-04T15:55:42.542Z,22.73
2019-04-04T15:58:12.561Z,23.35
2019-04-04T16:00:40.292Z,20.68
2019-04-04T16:03:08.054Z,19.40
2019-04-04T16:05:38.716Z,20.17
2019-04-04T16:08:05.744Z,18.70
2019-04-04T16:10:33.933Z,18.05
2019-04-04T16:13:01.709Z,19.07
2019-04-04T16:15:30.735Z,17.50
2019-04-04T16:18:01.334Z,18.57
2019-04-04T16:20:30.550Z,18.90
2019-04-04T16:23:00.027Z,20.00
2019-04-04T16:25:27.996Z,19.65
2019-04-04T16:27:57.896Z,20.60
2019-04-04T16:30:25.754Z,18.40
2019-04-04T16:32:59.319Z,18.35
2019-04-04T16:35:27.218Z,15.93
2019-04-04T16:37:55.115Z,17.82
2019-04-04T16:40:23.027Z,16.17
2019-04-04T16:42:51.220Z,16.35
2019-04-04T16:45:18.919Z,16.50
2019-04-04T16:47:46.633Z,15.85
2019-04-04T16:50:14.917Z,15.28
2019-04-04T16:52:45.985Z,16.12
2019-04-04T16:55:14.040Z,16.77
2019-04-04T16:57:43.485Z,16.42
2019-04-04T17:00:13.203Z,16.05
2019-04-04T17:02:44.153Z,16.82
2019-04-04T17:05:12.639Z,16.40
2019-04-04T17:07:40.954Z,16.97
2019-04-04T17:10:09.640Z,18.50
2019-04-04T17:12:37.446Z,18.27
2019-04-04T17:15:06.959Z,17.85
2019-04-04T17:17:34.995Z,19.05
2019-04-04T17:20:05.111Z,16.10
2019-04-04T17:22:33.157Z,16.50
2019-04-04T17:25:03.379Z,15.93
2019-04-04T17:27:31.229Z,16.95
2019-04-04T17:30:00.397Z,14.75
2019-04-04T17:32:28.453Z,15.50
2019-04-04T17:34:58.074Z,14.90
2019-04-04T17:37:26.649Z,16.02
2019-04-04T17:39:56.863Z,15.48
2019-04-04T17:42:30.410Z,15.45
2019-04-04T17:44:55.895Z,15.72
2019-04-04T17:47:23.977Z,15.63
2019-04-04T17:49:58.515Z,14.73
2019-04-04T17:52:26.620Z,15.90
2019-04-04T17:54:54.531Z,15.65
2019-04-04T17:57:22.473Z,16.07
2019-04-04T17:59:50.272Z,15.45
2019-04-04T18:02:20.400Z,15.10
2019-04-04T18:04:48.874Z,16.00
2019-04-04T18:07:16.881Z,16.62
2019-04-04T18:09:45.771Z,15.05
2019-04-04T18:12:16.696Z,15.95
2019-04-04T18:14:44.869Z,14.75
2019-04-04T18:17:13.163Z,14.75
2019-04-04T18:19:41.037Z,15.58
2019-04-04T18:22:08.968Z,16.32
2019-04-04T18:24:37.521Z,15.95
2019-04-04T18:27:05.610Z,15.23
2019-04-04T18:29:33.694Z,14.75
2019-04-04T18:32:01.691Z,14.68
2019-04-04T18:34:30.338Z,15.93
2019-04-04T18:36:59.078Z,15.32
2019-04-04T18:39:26.834Z,14.90
2019-04-04T18:41:57.145Z,13.68
2019-04-04T18:44:25.521Z,15.98
2019-04-04T18:46:53.338Z,14.58
2019-04-04T18:49:21.429Z,15.98
2019-04-04T18:51:49.446Z,14.78
2019-04-04T18:54:17.330Z,14.93
2019-04-04T18:56:45.169Z,17.05
2019-04-04T18:59:13.874Z,16.75
2019-04-04T19:01:41.807Z,17.23
2019-04-04T19:04:09.682Z,16.30
2019-04-04T19:06:37.954Z,16.90
2019-04-04T19:09:14.986Z,16.82
2019-04-04T19:11:40.558Z,17.55
2019-04-04T19:14:08.809Z,17.32
2019-04-04T19:16:37.135Z,18.48
2019-04-04T19:19:05.110Z,17.48
2019-04-04T19:21:42.845Z,17.00
2019-04-04T19:24:11.116Z,16.60
2019-04-04T19:26:39.381Z,16.12
2019-04-04T19:29:07.183Z,14.85
2019-04-04T19:31:36.144Z,16.62
2019-04-04T19:34:04.477Z,16.42
2019-04-04T19:36:32.655Z,18.07
2019-04-04T19:39:00.595Z,15.38
2019-04-04T19:41:37.006Z,17.95
2019-04-04T19:44:05.180Z,17.12
2019-04-04T19:46:37.260Z,18.87
2019-04-04T19:49:04.399Z,18.62
2019-04-04T19:51:32.240Z,18.57
2019-04-04T19:54:00.899Z,19.20
2019-04-04T19:56:30.066Z,17.65
2019-04-04T19:58:57.909Z,19.35
2019-04-04T20:01:26.301Z,21.07
2019-04-04T20:03:57.465Z,22.55
2019-04-04T20:06:25.633Z,23.20
2019-04-04T20:08:53.789Z,23.47
2019-04-04T20:11:23.024Z,24.02
2019-04-04T20:13:51.638Z,24.63
2019-04-04T20:16:20.093Z,20.10
2019-04-04T20:18:48.599Z,21.65
2019-04-04T20:21:19.515Z,21.05
2019-04-04T20:23:48.063Z,22.50
2019-04-04T20:26:16.333Z,22.90
2019-04-04T20:28:44.644Z,21.87
2019-04-04T20:31:18.898Z,25.00
2019-04-04T20:33:47.242Z,22.98
2019-04-04T20:36:15.503Z,24.60
2019-04-04T20:38:43.548Z,24.85
2019-04-04T20:41:16.276Z,26.33
2019-04-04T20:43:43.909Z,25.62
2019-04-04T20:46:12.334Z,23.75
2019-04-04T20:48:40.089Z,40.10
2019-04-04T20:51:08.015Z,35.55
2019-04-04T20:53:35.924Z,23.10
2019-04-04T20:56:05.129Z,16.17
2019-04-04T20:58:32.934Z,14.07
2019-04-04T21:01:02.137Z,13.88
2019-04-04T21:03:30.205Z,13.03
2019-04-04T21:06:02.294Z,13.78
2019-04-04T21:08:30.303Z,15.30
2019-04-04T21:10:59.208Z,19.90
2019-04-04T21:13:27.443Z,23.35
2019-04-04T21:15:56.204Z,21.37
2019-04-04T21:18:23.919Z,19.60
2019-04-04T21:20:51.959Z,22.42
2019-04-04T21:23:19.803Z,24.77
2019-04-04T21:25:53.581Z,26.07
2019-04-04T21:28:21.341Z,17.12
2019-04-04T21:30:49.320Z,15.43
2019-04-04T21:33:17.378Z,12.88
2019-04-04T21:35:45.244Z,12.18
2019-04-04T21:38:13.036Z,12.13
2019-04-04T21:40:40.974Z,11.50
2019-04-04T21:43:08.857Z,11.57
2019-04-04T21:45:40.184Z,11.53
2019-04-04T21:48:08.252Z,13.10
2019-04-04T21:50:40.326Z,13.18
2019-04-04T21:53:08.015Z,15.88
2019-04-04T21:55:35.688Z,16.12
2019-04-04T21:58:03.828Z,14.80
2019-04-04T22:00:43.599Z,13.83
2019-04-04T22:03:14.153Z,14.60
2019-04-04T22:05:42.116Z,13.78
2019-04-04T22:08:10.081Z,12.78
2019-04-04T22:10:37.803Z,12.25
2019-04-04T22:13:05.829Z,12.85
2019-04-04T22:15:33.630Z,14.05
2019-04-04T22:18:01.402Z,15.48
2019-04-04T22:20:29.159Z,14.70
2019-04-04T22:22:57.375Z,12.70
2019-04-04T22:25:26.732Z,13.25
2019-04-04T22:27:54.527Z,11.80
2019-04-04T22:30:22.547Z,13.43
2019-04-04T22:32:50.383Z,11.55
2019-04-04T22:35:18.298Z,12.60
2019-04-04T22:37:46.410Z,13.58
2019-04-04T22:40:14.318Z,11.57
2019-04-04T22:42:42.226Z,11.75
2019-04-04T22:45:10.316Z,12.55
2019-04-04T22:47:38.345Z,10.93
2019-04-04T22:50:07.371Z,11.88
2019-04-04T22:52:35.188Z,11.25
2019-04-04T22:55:03.104Z,12.00
2019-04-04T22:57:31.046Z,12.05
2019-04-04T22:59:58.918Z,11.88
2019-04-04T23:02:27.967Z,11.60
2019-04-04T23:04:55.881Z,11.75
2019-04-04T23:07:23.795Z,11.22
2019-04-04T23:09:51.658Z,11.30
2019-04-04T23:12:19.699Z,11.97
2019-04-04T23:14:48.621Z,13.43
2019-04-04T23:17:16.865Z,12.73
2019-04-04T23:19:44.729Z,12.78
2019-04-04T23:22:12.639Z,11.15
2019-04-04T23:24:40.392Z,12.63
2019-04-04T23:27:08.087Z,13.93
2019-04-04T23:29:36.138Z,14.45
2019-04-04T23:32:04.130Z,13.20
2019-04-04T23:34:31.919Z,12.58
2019-04-04T23:36:59.723Z,12.98
2019-04-04T23:39:27.659Z,12.85
2019-04-04T23:41:55.854Z,12.00
2019-04-04T23:44:23.868Z,13.15
2019-04-04T23:46:52.100Z,13.00
2019-04-04T23:49:19.810Z,12.43
2019-04-04T23:51:47.987Z,11.53
2019-04-04T23:54:16.059Z,13.38
2019-04-04T23:56:45.635Z,15.08
2019-04-04T23:59:13.462Z,13.45
